sensor_id;sensor_type;location;lat;lon;timestamp;P1;durP1;ratioP1;P2;durP2;ratioP2
62435;SDS011;48480;50.252;18.848;2024-01-27T00:00:10;6.00;;;1.60;;
62435;SDS011;48480;50.252;18.848;2024-01-27T00:02:54;6.40;;;1.80;;
62435;SDS011;48480;50.252;18.848;2024-01-27T00:05:38;4.00;;;1.30;;
62435;SDS011;48480;50.252;18.848;2024-01-27T00:08:22;4.50;;;1.10;;
62435;SDS011;48480;50.252;18.848;2024-01-27T00:11:06;9.30;;;2.00;;
62435;SDS011;48480;50.252;18.848;2024-01-27T00:13:52;6.40;;;1.60;;
62435;SDS011;48480;50.252;18.848;2024-01-27T00:16:36;3.90;;;1.60;;
62435;SDS011;48480;50.252;18.848;2024-01-27T00:19:19;6.40;;;1.60;;
62435;SDS011;48480;50.252;18.848;2024-01-27T00:22:04;6.20;;;2.00;;
62435;SDS011;48480;50.252;18.848;2024-01-27T00:24:51;9.40;;;3.70;;
62435;SDS011;48480;50.252;18.848;2024-01-27T00:27:36;5.80;;;2.50;;
62435;SDS011;48480;50.252;18.848;2024-01-27T00:30:20;3.80;;;1.70;;
62435;SDS011;48480;50.252;18.848;2024-01-27T00:33:04;7.10;;;2.00;;
62435;SDS011;48480;50.252;18.848;2024-01-27T00:35:49;7.00;;;1.80;;
62435;SDS011;48480;50.252;18.848;2024-01-27T00:38:33;6.30;;;1.80;;
62435;SDS011;48480;50.252;18.848;2024-01-27T00:41:17;5.70;;;1.70;;
62435;SDS011;48480;50.252;18.848;2024-01-27T00:44:01;9.20;;;2.40;;
62435;SDS011;48480;50.252;18.848;2024-01-27T00:46:45;10.90;;;2.80;;
62435;SDS011;48480;50.252;18.848;2024-01-27T00:49:29;5.40;;;1.50;;
62435;SDS011;48480;50.252;18.848;2024-01-27T00:52:14;4.40;;;1.80;;
62435;SDS011;48480;50.252;18.848;2024-01-27T00:54:58;6.60;;;1.80;;
62435;SDS011;48480;50.252;18.848;2024-01-27T00:57:42;7.20;;;2.00;;
62435;SDS011;48480;50.252;18.848;2024-01-27T01:00:25;5.60;;;1.60;;
62435;SDS011;48480;50.252;18.848;2024-01-27T01:03:09;4.70;;;2.40;;
62435;SDS011;48480;50.252;18.848;2024-01-27T01:05:53;8.30;;;2.00;;
62435;SDS011;48480;50.252;18.848;2024-01-27T01:08:38;4.60;;;1.90;;
62435;SDS011;48480;50.252;18.848;2024-01-27T01:11:22;5.40;;;1.90;;
62435;SDS011;48480;50.252;18.848;2024-01-27T01:14:06;3.50;;;1.60;;
62435;SDS011;48480;50.252;18.848;2024-01-27T01:16:50;11.00;;;2.90;;
62435;SDS011;48480;50.252;18.848;2024-01-27T01:19:33;5.20;;;1.70;;
62435;SDS011;48480;50.252;18.848;2024-01-27T01:22:17;4.90;;;1.50;;
62435;SDS011;48480;50.252;18.848;2024-01-27T01:25:02;11.40;;;2.20;;
62435;SDS011;48480;50.252;18.848;2024-01-27T01:27:46;8.70;;;2.30;;
62435;SDS011;48480;50.252;18.848;2024-01-27T01:30:33;7.50;;;2.10;;
62435;SDS011;48480;50.252;18.848;2024-01-27T01:33:20;6.20;;;1.80;;
62435;SDS011;48480;50.252;18.848;2024-01-27T01:36:04;8.90;;;2.20;;
62435;SDS011;48480;50.252;18.848;2024-01-27T01:38:48;5.00;;;1.50;;
62435;SDS011;48480;50.252;18.848;2024-01-27T01:41:32;5.30;;;1.40;;
62435;SDS011;48480;50.252;18.848;2024-01-27T01:44:16;9.00;;;2.40;;
62435;SDS011;48480;50.252;18.848;2024-01-27T01:47:00;5.30;;;1.50;;
62435;SDS011;48480;50.252;18.848;2024-01-27T01:49:45;11.90;;;2.10;;
62435;SDS011;48480;50.252;18.848;2024-01-27T01:52:29;4.80;;;1.50;;
62435;SDS011;48480;50.252;18.848;2024-01-27T01:55:13;6.60;;;2.00;;
62435;SDS011;48480;50.252;18.848;2024-01-27T01:57:58;6.90;;;2.70;;
62435;SDS011;48480;50.252;18.848;2024-01-27T02:00:42;6.20;;;1.80;;
62435;SDS011;48480;50.252;18.848;2024-01-27T02:03:27;4.20;;;1.50;;
62435;SDS011;48480;50.252;18.848;2024-01-27T02:06:11;2.90;;;1.20;;
62435;SDS011;48480;50.252;18.848;2024-01-27T02:08:55;3.80;;;1.70;;
62435;SDS011;48480;50.252;18.848;2024-01-27T02:11:40;4.60;;;1.60;;
62435;SDS011;48480;50.252;18.848;2024-01-27T02:14:24;5.90;;;1.50;;
62435;SDS011;48480;50.252;18.848;2024-01-27T02:17:10;4.70;;;1.70;;
62435;SDS011;48480;50.252;18.848;2024-01-27T02:19:54;6.90;;;2.00;;
62435;SDS011;48480;50.252;18.848;2024-01-27T02:22:38;5.90;;;1.50;;
62435;SDS011;48480;50.252;18.848;2024-01-27T02:25:22;5.10;;;1.40;;
62435;SDS011;48480;50.252;18.848;2024-01-27T02:28:06;3.30;;;1.20;;
62435;SDS011;48480;50.252;18.848;2024-01-27T02:30:51;4.00;;;1.60;;
62435;SDS011;48480;50.252;18.848;2024-01-27T02:33:35;6.70;;;1.80;;
62435;SDS011;48480;50.252;18.848;2024-01-27T02:36:19;5.00;;;1.40;;
62435;SDS011;48480;50.252;18.848;2024-01-27T02:39:03;6.70;;;1.70;;
62435;SDS011;48480;50.252;18.848;2024-01-27T02:41:47;4.20;;;1.30;;
62435;SDS011;48480;50.252;18.848;2024-01-27T02:44:32;6.50;;;1.70;;
62435;SDS011;48480;50.252;18.848;2024-01-27T02:47:16;6.60;;;2.00;;
62435;SDS011;48480;50.252;18.848;2024-01-27T02:50:00;8.40;;;2.30;;
62435;SDS011;48480;50.252;18.848;2024-01-27T02:52:44;5.10;;;1.60;;
62435;SDS011;48480;50.252;18.848;2024-01-27T02:55:28;5.20;;;1.60;;
62435;SDS011;48480;50.252;18.848;2024-01-27T02:58:12;6.50;;;1.70;;
62435;SDS011;48480;50.252;18.848;2024-01-27T03:00:55;6.60;;;1.80;;
62435;SDS011;48480;50.252;18.848;2024-01-27T03:03:40;4.00;;;1.20;;
62435;SDS011;48480;50.252;18.848;2024-01-27T03:06:24;7.40;;;1.80;;
62435;SDS011;48480;50.252;18.848;2024-01-27T03:09:08;6.70;;;1.70;;
62435;SDS011;48480;50.252;18.848;2024-01-27T03:11:54;7.00;;;2.20;;
62435;SDS011;48480;50.252;18.848;2024-01-27T03:14:38;7.80;;;1.60;;
62435;SDS011;48480;50.252;18.848;2024-01-27T03:17:22;7.10;;;1.90;;
62435;SDS011;48480;50.252;18.848;2024-01-27T03:20:06;5.10;;;1.60;;
62435;SDS011;48480;50.252;18.848;2024-01-27T03:22:52;4.40;;;1.40;;
62435;SDS011;48480;50.252;18.848;2024-01-27T03:25:36;3.50;;;1.40;;
62435;SDS011;48480;50.252;18.848;2024-01-27T03:28:20;3.60;;;1.50;;
62435;SDS011;48480;50.252;18.848;2024-01-27T03:31:04;6.10;;;1.30;;
62435;SDS011;48480;50.252;18.848;2024-01-27T03:33:48;8.00;;;1.90;;
62435;SDS011;48480;50.252;18.848;2024-01-27T03:36:33;8.20;;;2.10;;
62435;SDS011;48480;50.252;18.848;2024-01-27T03:39:17;6.70;;;1.80;;
62435;SDS011;48480;50.252;18.848;2024-01-27T03:42:01;6.70;;;1.60;;
62435;SDS011;48480;50.252;18.848;2024-01-27T03:44:45;4.70;;;1.40;;
62435;SDS011;48480;50.252;18.848;2024-01-27T03:47:30;4.00;;;1.40;;
62435;SDS011;48480;50.252;18.848;2024-01-27T03:50:14;7.60;;;2.60;;
62435;SDS011;48480;50.252;18.848;2024-01-27T03:52:58;9.60;;;2.20;;
62435;SDS011;48480;50.252;18.848;2024-01-27T03:55:43;4.30;;;1.40;;
62435;SDS011;48480;50.252;18.848;2024-01-27T03:58:26;7.30;;;2.50;;
62435;SDS011;48480;50.252;18.848;2024-01-27T04:01:10;2.90;;;1.50;;
62435;SDS011;48480;50.252;18.848;2024-01-27T04:03:54;7.00;;;2.20;;
62435;SDS011;48480;50.252;18.848;2024-01-27T04:06:39;9.60;;;2.10;;
62435;SDS011;48480;50.252;18.848;2024-01-27T04:09:24;4.30;;;1.60;;
62435;SDS011;48480;50.252;18.848;2024-01-27T04:12:08;6.70;;;1.90;;
62435;SDS011;48480;50.252;18.848;2024-01-27T04:14:52;7.10;;;2.60;;
62435;SDS011;48480;50.252;18.848;2024-01-27T04:17:39;5.20;;;1.30;;
62435;SDS011;48480;50.252;18.848;2024-01-27T04:20:24;5.30;;;1.50;;
62435;SDS011;48480;50.252;18.848;2024-01-27T04:23:08;4.30;;;1.20;;
62435;SDS011;48480;50.252;18.848;2024-01-27T04:25:53;5.30;;;1.10;;
62435;SDS011;48480;50.252;18.848;2024-01-27T04:28:38;6.70;;;1.80;;
62435;SDS011;48480;50.252;18.848;2024-01-27T04:31:22;5.60;;;1.40;;
62435;SDS011;48480;50.252;18.848;2024-01-27T04:34:06;7.60;;;2.00;;
62435;SDS011;48480;50.252;18.848;2024-01-27T04:36:50;4.90;;;1.30;;
62435;SDS011;48480;50.252;18.848;2024-01-27T04:39:37;4.30;;;1.50;;
62435;SDS011;48480;50.252;18.848;2024-01-27T04:42:21;10.10;;;2.20;;
62435;SDS011;48480;50.252;18.848;2024-01-27T04:45:07;10.20;;;3.40;;
62435;SDS011;48480;50.252;18.848;2024-01-27T04:47:51;6.30;;;2.90;;
62435;SDS011;48480;50.252;18.848;2024-01-27T04:50:37;11.60;;;2.60;;
62435;SDS011;48480;50.252;18.848;2024-01-27T04:53:21;8.90;;;3.00;;
62435;SDS011;48480;50.252;18.848;2024-01-27T04:56:05;9.30;;;2.70;;
62435;SDS011;48480;50.252;18.848;2024-01-27T04:58:52;10.80;;;2.50;;
62435;SDS011;48480;50.252;18.848;2024-01-27T05:01:36;11.50;;;3.10;;
62435;SDS011;48480;50.252;18.848;2024-01-27T05:04:20;13.80;;;3.40;;
62435;SDS011;48480;50.252;18.848;2024-01-27T05:07:04;4.70;;;2.20;;
62435;SDS011;48480;50.252;18.848;2024-01-27T05:09:48;9.90;;;2.40;;
62435;SDS011;48480;50.252;18.848;2024-01-27T05:12:32;7.70;;;2.20;;
62435;SDS011;48480;50.252;18.848;2024-01-27T05:15:16;7.80;;;1.80;;
62435;SDS011;48480;50.252;18.848;2024-01-27T05:18:00;11.90;;;2.30;;
62435;SDS011;48480;50.252;18.848;2024-01-27T05:20:44;4.40;;;1.60;;
62435;SDS011;48480;50.252;18.848;2024-01-27T05:23:28;7.00;;;1.80;;
62435;SDS011;48480;50.252;18.848;2024-01-27T05:26:13;11.20;;;2.90;;
62435;SDS011;48480;50.252;18.848;2024-01-27T05:28:57;10.60;;;2.70;;
62435;SDS011;48480;50.252;18.848;2024-01-27T05:31:41;9.30;;;2.70;;
62435;SDS011;48480;50.252;18.848;2024-01-27T05:34:27;5.00;;;1.50;;
62435;SDS011;48480;50.252;18.848;2024-01-27T05:37:11;6.00;;;1.70;;
62435;SDS011;48480;50.252;18.848;2024-01-27T05:39:57;5.90;;;1.70;;
62435;SDS011;48480;50.252;18.848;2024-01-27T05:42:41;6.00;;;1.60;;
62435;SDS011;48480;50.252;18.848;2024-01-27T05:45:26;6.60;;;1.60;;
62435;SDS011;48480;50.252;18.848;2024-01-27T05:48:10;9.20;;;2.10;;
62435;SDS011;48480;50.252;18.848;2024-01-27T05:50:58;7.70;;;2.60;;
62435;SDS011;48480;50.252;18.848;2024-01-27T05:53:44;8.50;;;2.60;;
62435;SDS011;48480;50.252;18.848;2024-01-27T05:56:28;5.90;;;1.70;;
62435;SDS011;48480;50.252;18.848;2024-01-27T05:59:11;5.70;;;1.60;;
62435;SDS011;48480;50.252;18.848;2024-01-27T06:01:55;8.30;;;1.70;;
62435;SDS011;48480;50.252;18.848;2024-01-27T06:04:41;4.90;;;1.50;;
62435;SDS011;48480;50.252;18.848;2024-01-27T06:07:25;6.90;;;1.60;;
62435;SDS011;48480;50.252;18.848;2024-01-27T06:10:09;6.00;;;1.90;;
62435;SDS011;48480;50.252;18.848;2024-01-27T06:12:53;7.60;;;1.80;;
62435;SDS011;48480;50.252;18.848;2024-01-27T06:15:37;7.00;;;1.90;;
62435;SDS011;48480;50.252;18.848;2024-01-27T06:18:21;4.20;;;1.80;;
62435;SDS011;48480;50.252;18.848;2024-01-27T06:21:06;5.10;;;1.90;;
62435;SDS011;48480;50.252;18.848;2024-01-27T06:23:50;7.60;;;2.10;;
62435;SDS011;48480;50.252;18.848;2024-01-27T06:26:34;4.70;;;1.50;;
62435;SDS011;48480;50.252;18.848;2024-01-27T06:29:18;7.40;;;2.10;;
62435;SDS011;48480;50.252;18.848;2024-01-27T06:32:02;6.70;;;1.70;;
62435;SDS011;48480;50.252;18.848;2024-01-27T06:34:47;4.70;;;1.60;;
62435;SDS011;48480;50.252;18.848;2024-01-27T06:37:31;7.40;;;1.20;;
62435;SDS011;48480;50.252;18.848;2024-01-27T06:40:15;6.80;;;1.90;;
62435;SDS011;48480;50.252;18.848;2024-01-27T06:42:58;7.70;;;1.90;;
62435;SDS011;48480;50.252;18.848;2024-01-27T06:45:42;6.30;;;2.10;;
62435;SDS011;48480;50.252;18.848;2024-01-27T06:48:26;4.20;;;1.80;;
62435;SDS011;48480;50.252;18.848;2024-01-27T06:51:10;5.80;;;2.30;;
62435;SDS011;48480;50.252;18.848;2024-01-27T06:53:55;7.60;;;2.30;;
62435;SDS011;48480;50.252;18.848;2024-01-27T06:56:39;8.90;;;2.70;;
62435;SDS011;48480;50.252;18.848;2024-01-27T06:59:23;7.80;;;2.30;;
62435;SDS011;48480;50.252;18.848;2024-01-27T07:02:07;4.20;;;1.30;;
62435;SDS011;48480;50.252;18.848;2024-01-27T07:04:57;5.40;;;1.80;;
62435;SDS011;48480;50.252;18.848;2024-01-27T07:07:43;6.20;;;2.00;;
62435;SDS011;48480;50.252;18.848;2024-01-27T07:10:27;5.80;;;1.50;;
62435;SDS011;48480;50.252;18.848;2024-01-27T07:13:10;4.80;;;1.70;;
62435;SDS011;48480;50.252;18.848;2024-01-27T07:15:58;8.00;;;2.00;;
62435;SDS011;48480;50.252;18.848;2024-01-27T07:18:42;4.90;;;1.80;;
62435;SDS011;48480;50.252;18.848;2024-01-27T07:21:26;6.00;;;1.80;;
62435;SDS011;48480;50.252;18.848;2024-01-27T07:24:13;10.50;;;2.20;;
62435;SDS011;48480;50.252;18.848;2024-01-27T07:26:57;4.50;;;1.80;;
62435;SDS011;48480;50.252;18.848;2024-01-27T07:29:42;5.50;;;1.80;;
62435;SDS011;48480;50.252;18.848;2024-01-27T07:32:26;10.00;;;3.00;;
62435;SDS011;48480;50.252;18.848;2024-01-27T07:35:10;7.60;;;2.30;;
62435;SDS011;48480;50.252;18.848;2024-01-27T07:37:54;5.80;;;1.70;;
62435;SDS011;48480;50.252;18.848;2024-01-27T07:40:38;9.90;;;2.30;;
62435;SDS011;48480;50.252;18.848;2024-01-27T07:43:25;12.20;;;2.60;;
62435;SDS011;48480;50.252;18.848;2024-01-27T07:46:10;4.10;;;1.40;;
62435;SDS011;48480;50.252;18.848;2024-01-27T07:48:54;5.80;;;2.20;;
62435;SDS011;48480;50.252;18.848;2024-01-27T07:51:38;8.00;;;2.30;;
62435;SDS011;48480;50.252;18.848;2024-01-27T07:54:22;5.90;;;2.10;;
62435;SDS011;48480;50.252;18.848;2024-01-27T07:57:07;7.70;;;2.00;;
62435;SDS011;48480;50.252;18.848;2024-01-27T07:59:51;8.30;;;3.60;;
62435;SDS011;48480;50.252;18.848;2024-01-27T08:02:35;10.60;;;2.90;;
62435;SDS011;48480;50.252;18.848;2024-01-27T08:05:19;13.30;;;3.10;;
62435;SDS011;48480;50.252;18.848;2024-01-27T08:08:03;11.70;;;4.30;;
62435;SDS011;48480;50.252;18.848;2024-01-27T08:10:48;16.50;;;4.00;;
62435;SDS011;48480;50.252;18.848;2024-01-27T08:13:32;8.10;;;2.70;;
62435;SDS011;48480;50.252;18.848;2024-01-27T08:16:16;12.40;;;3.50;;
62435;SDS011;48480;50.252;18.848;2024-01-27T08:19:00;9.90;;;3.00;;
62435;SDS011;48480;50.252;18.848;2024-01-27T08:21:44;8.10;;;2.60;;
62435;SDS011;48480;50.252;18.848;2024-01-27T08:24:28;11.60;;;3.70;;
62435;SDS011;48480;50.252;18.848;2024-01-27T08:27:12;7.70;;;2.70;;
62435;SDS011;48480;50.252;18.848;2024-01-27T08:29:56;10.40;;;2.50;;
62435;SDS011;48480;50.252;18.848;2024-01-27T08:32:40;11.10;;;3.60;;
62435;SDS011;48480;50.252;18.848;2024-01-27T08:35:24;7.00;;;2.10;;
62435;SDS011;48480;50.252;18.848;2024-01-27T08:38:08;11.30;;;2.50;;
62435;SDS011;48480;50.252;18.848;2024-01-27T08:40:53;8.40;;;2.10;;
62435;SDS011;48480;50.252;18.848;2024-01-27T08:43:37;7.80;;;2.30;;
62435;SDS011;48480;50.252;18.848;2024-01-27T08:46:21;10.70;;;3.60;;
62435;SDS011;48480;50.252;18.848;2024-01-27T08:49:06;8.80;;;2.70;;
62435;SDS011;48480;50.252;18.848;2024-01-27T08:51:50;4.60;;;1.80;;
62435;SDS011;48480;50.252;18.848;2024-01-27T08:54:34;5.50;;;1.70;;
62435;SDS011;48480;50.252;18.848;2024-01-27T08:57:18;6.70;;;1.70;;
62435;SDS011;48480;50.252;18.848;2024-01-27T09:00:02;9.40;;;2.50;;
62435;SDS011;48480;50.252;18.848;2024-01-27T09:02:46;6.50;;;2.40;;
62435;SDS011;48480;50.252;18.848;2024-01-27T09:05:31;5.70;;;2.10;;
62435;SDS011;48480;50.252;18.848;2024-01-27T09:08:15;10.00;;;2.40;;
62435;SDS011;48480;50.252;18.848;2024-01-27T09:11:03;15.60;;;4.90;;
62435;SDS011;48480;50.252;18.848;2024-01-27T09:13:48;5.10;;;2.60;;
62435;SDS011;48480;50.252;18.848;2024-01-27T09:16:35;7.30;;;3.00;;
62435;SDS011;48480;50.252;18.848;2024-01-27T09:19:19;8.80;;;3.10;;
62435;SDS011;48480;50.252;18.848;2024-01-27T09:22:03;9.90;;;3.10;;
62435;SDS011;48480;50.252;18.848;2024-01-27T09:24:47;12.70;;;3.50;;
62435;SDS011;48480;50.252;18.848;2024-01-27T09:27:31;7.60;;;2.60;;
62435;SDS011;48480;50.252;18.848;2024-01-27T09:30:15;6.10;;;2.50;;
62435;SDS011;48480;50.252;18.848;2024-01-27T09:32:59;7.90;;;2.90;;
62435;SDS011;48480;50.252;18.848;2024-01-27T09:35:43;4.30;;;2.10;;
62435;SDS011;48480;50.252;18.848;2024-01-27T09:38:27;9.10;;;2.10;;
62435;SDS011;48480;50.252;18.848;2024-01-27T09:41:15;5.80;;;2.00;;
62435;SDS011;48480;50.252;18.848;2024-01-27T09:44:00;6.30;;;3.20;;
62435;SDS011;48480;50.252;18.848;2024-01-27T09:46:46;6.10;;;2.30;;
62435;SDS011;48480;50.252;18.848;2024-01-27T09:49:33;8.30;;;2.20;;
62435;SDS011;48480;50.252;18.848;2024-01-27T09:52:18;7.40;;;2.20;;
62435;SDS011;48480;50.252;18.848;2024-01-27T09:55:02;9.20;;;2.20;;
62435;SDS011;48480;50.252;18.848;2024-01-27T09:57:47;6.50;;;1.80;;
62435;SDS011;48480;50.252;18.848;2024-01-27T10:00:33;5.60;;;1.80;;
62435;SDS011;48480;50.252;18.848;2024-01-27T10:03:20;9.80;;;3.00;;
62435;SDS011;48480;50.252;18.848;2024-01-27T10:06:10;9.40;;;2.80;;
62435;SDS011;48480;50.252;18.848;2024-01-27T10:08:55;6.20;;;2.90;;
62435;SDS011;48480;50.252;18.848;2024-01-27T10:11:39;5.70;;;2.60;;
62435;SDS011;48480;50.252;18.848;2024-01-27T10:14:41;10.60;;;3.00;;
62435;SDS011;48480;50.252;18.848;2024-01-27T10:17:25;7.20;;;2.20;;
62435;SDS011;48480;50.252;18.848;2024-01-27T10:20:16;5.20;;;2.10;;
62435;SDS011;48480;50.252;18.848;2024-01-27T10:23:12;7.80;;;2.20;;
62435;SDS011;48480;50.252;18.848;2024-01-27T10:25:56;9.00;;;2.50;;
62435;SDS011;48480;50.252;18.848;2024-01-27T10:28:40;7.60;;;2.70;;
62435;SDS011;48480;50.252;18.848;2024-01-27T10:31:26;8.60;;;3.10;;
62435;SDS011;48480;50.252;18.848;2024-01-27T10:34:14;6.20;;;2.10;;
62435;SDS011;48480;50.252;18.848;2024-01-27T10:37:03;4.90;;;2.10;;
62435;SDS011;48480;50.252;18.848;2024-01-27T10:39:47;5.50;;;2.00;;
62435;SDS011;48480;50.252;18.848;2024-01-27T10:42:32;12.70;;;3.60;;
62435;SDS011;48480;50.252;18.848;2024-01-27T10:45:16;9.40;;;2.70;;
62435;SDS011;48480;50.252;18.848;2024-01-27T10:48:02;5.00;;;2.40;;
62435;SDS011;48480;50.252;18.848;2024-01-27T10:50:47;10.30;;;2.70;;
62435;SDS011;48480;50.252;18.848;2024-01-27T10:53:32;9.00;;;3.10;;
62435;SDS011;48480;50.252;18.848;2024-01-27T10:56:19;4.90;;;2.00;;
62435;SDS011;48480;50.252;18.848;2024-01-27T10:59:05;6.20;;;1.90;;
62435;SDS011;48480;50.252;18.848;2024-01-27T11:01:52;9.60;;;2.40;;
62435;SDS011;48480;50.252;18.848;2024-01-27T11:04:38;6.30;;;2.20;;
62435;SDS011;48480;50.252;18.848;2024-01-27T11:07:23;6.10;;;2.40;;
62435;SDS011;48480;50.252;18.848;2024-01-27T11:10:07;10.40;;;3.30;;
62435;SDS011;48480;50.252;18.848;2024-01-27T11:12:52;5.20;;;2.60;;
62435;SDS011;48480;50.252;18.848;2024-01-27T11:15:39;6.90;;;2.80;;
62435;SDS011;48480;50.252;18.848;2024-01-27T11:18:23;9.70;;;3.10;;
62435;SDS011;48480;50.252;18.848;2024-01-27T11:21:12;9.10;;;2.60;;
62435;SDS011;48480;50.252;18.848;2024-01-27T11:23:57;6.70;;;2.10;;
62435;SDS011;48480;50.252;18.848;2024-01-27T11:26:41;4.20;;;1.90;;
62435;SDS011;48480;50.252;18.848;2024-01-27T11:29:26;9.60;;;3.30;;
62435;SDS011;48480;50.252;18.848;2024-01-27T11:32:11;9.90;;;3.80;;
62435;SDS011;48480;50.252;18.848;2024-01-27T11:34:56;5.90;;;1.90;;
62435;SDS011;48480;50.252;18.848;2024-01-27T11:37:41;11.10;;;3.90;;
62435;SDS011;48480;50.252;18.848;2024-01-27T11:40:25;14.60;;;4.10;;
62435;SDS011;48480;50.252;18.848;2024-01-27T11:43:09;9.60;;;3.40;;
62435;SDS011;48480;50.252;18.848;2024-01-27T11:45:58;12.50;;;3.50;;
62435;SDS011;48480;50.252;18.848;2024-01-27T11:48:43;10.10;;;3.60;;
62435;SDS011;48480;50.252;18.848;2024-01-27T11:51:27;7.80;;;3.20;;
62435;SDS011;48480;50.252;18.848;2024-01-27T11:54:12;9.80;;;3.20;;
62435;SDS011;48480;50.252;18.848;2024-01-27T11:56:56;9.20;;;1.70;;
62435;SDS011;48480;50.252;18.848;2024-01-27T11:59:41;9.00;;;3.10;;
62435;SDS011;48480;50.252;18.848;2024-01-27T12:02:25;10.20;;;3.40;;
62435;SDS011;48480;50.252;18.848;2024-01-27T12:05:09;9.70;;;3.30;;
62435;SDS011;48480;50.252;18.848;2024-01-27T12:07:53;8.50;;;3.50;;
62435;SDS011;48480;50.252;18.848;2024-01-27T12:10:37;13.30;;;4.80;;
62435;SDS011;48480;50.252;18.848;2024-01-27T12:13:22;8.40;;;4.00;;
62435;SDS011;48480;50.252;18.848;2024-01-27T12:16:06;11.20;;;3.80;;
62435;SDS011;48480;50.252;18.848;2024-01-27T12:18:52;8.50;;;3.30;;
62435;SDS011;48480;50.252;18.848;2024-01-27T12:21:47;14.70;;;4.70;;
62435;SDS011;48480;50.252;18.848;2024-01-27T12:24:33;10.40;;;4.20;;
62435;SDS011;48480;50.252;18.848;2024-01-27T12:27:23;10.90;;;3.60;;
62435;SDS011;48480;50.252;18.848;2024-01-27T12:30:08;8.00;;;3.20;;
62435;SDS011;48480;50.252;18.848;2024-01-27T12:32:52;10.10;;;3.40;;
62435;SDS011;48480;50.252;18.848;2024-01-27T12:35:36;13.90;;;5.60;;
62435;SDS011;48480;50.252;18.848;2024-01-27T12:38:22;14.20;;;4.70;;
62435;SDS011;48480;50.252;18.848;2024-01-27T12:41:06;6.80;;;2.90;;
62435;SDS011;48480;50.252;18.848;2024-01-27T12:43:50;9.20;;;3.50;;
62435;SDS011;48480;50.252;18.848;2024-01-27T12:46:35;10.60;;;3.60;;
62435;SDS011;48480;50.252;18.848;2024-01-27T12:49:19;11.60;;;4.70;;
62435;SDS011;48480;50.252;18.848;2024-01-27T12:52:03;9.20;;;3.70;;
62435;SDS011;48480;50.252;18.848;2024-01-27T12:54:48;8.70;;;3.70;;
62435;SDS011;48480;50.252;18.848;2024-01-27T12:57:32;11.60;;;4.40;;
62435;SDS011;48480;50.252;18.848;2024-01-27T13:00:17;9.40;;;3.20;;
62435;SDS011;48480;50.252;18.848;2024-01-27T13:03:01;30.00;;;9.80;;
62435;SDS011;48480;50.252;18.848;2024-01-27T13:05:45;11.70;;;5.10;;
62435;SDS011;48480;50.252;18.848;2024-01-27T13:08:29;18.40;;;5.50;;
62435;SDS011;48480;50.252;18.848;2024-01-27T13:11:13;11.70;;;4.90;;
62435;SDS011;48480;50.252;18.848;2024-01-27T13:13:57;11.70;;;4.30;;
62435;SDS011;48480;50.252;18.848;2024-01-27T13:16:41;11.50;;;3.70;;
62435;SDS011;48480;50.252;18.848;2024-01-27T13:19:26;13.10;;;4.40;;
62435;SDS011;48480;50.252;18.848;2024-01-27T13:22:11;11.70;;;4.60;;
62435;SDS011;48480;50.252;18.848;2024-01-27T13:24:56;16.60;;;5.20;;
62435;SDS011;48480;50.252;18.848;2024-01-27T13:27:45;16.40;;;5.80;;
62435;SDS011;48480;50.252;18.848;2024-01-27T13:30:30;9.70;;;4.20;;
62435;SDS011;48480;50.252;18.848;2024-01-27T13:33:15;12.60;;;4.80;;
62435;SDS011;48480;50.252;18.848;2024-01-27T13:35:59;12.90;;;5.00;;
62435;SDS011;48480;50.252;18.848;2024-01-27T13:38:43;10.50;;;3.70;;
62435;SDS011;48480;50.252;18.848;2024-01-27T13:41:27;9.30;;;3.50;;
62435;SDS011;48480;50.252;18.848;2024-01-27T13:44:12;7.50;;;3.60;;
62435;SDS011;48480;50.252;18.848;2024-01-27T13:46:55;7.90;;;4.10;;
62435;SDS011;48480;50.252;18.848;2024-01-27T13:49:44;10.30;;;3.00;;
62435;SDS011;48480;50.252;18.848;2024-01-27T13:52:29;9.40;;;3.20;;
62435;SDS011;48480;50.252;18.848;2024-01-27T13:55:13;10.40;;;4.10;;
62435;SDS011;48480;50.252;18.848;2024-01-27T13:57:57;13.30;;;4.00;;
62435;SDS011;48480;50.252;18.848;2024-01-27T14:00:41;8.60;;;3.80;;
62435;SDS011;48480;50.252;18.848;2024-01-27T14:03:25;9.60;;;3.60;;
62435;SDS011;48480;50.252;18.848;2024-01-27T14:06:09;10.00;;;3.00;;
62435;SDS011;48480;50.252;18.848;2024-01-27T14:08:56;16.10;;;4.00;;
62435;SDS011;48480;50.252;18.848;2024-01-27T14:11:39;9.00;;;3.00;;
62435;SDS011;48480;50.252;18.848;2024-01-27T14:14:24;12.90;;;5.50;;
62435;SDS011;48480;50.252;18.848;2024-01-27T14:17:08;12.60;;;5.70;;
62435;SDS011;48480;50.252;18.848;2024-01-27T14:19:52;8.70;;;4.10;;
62435;SDS011;48480;50.252;18.848;2024-01-27T14:22:37;17.60;;;6.90;;
62435;SDS011;48480;50.252;18.848;2024-01-27T14:25:21;27.80;;;10.10;;
62435;SDS011;48480;50.252;18.848;2024-01-27T14:28:05;23.90;;;8.50;;
62435;SDS011;48480;50.252;18.848;2024-01-27T14:30:51;55.10;;;19.00;;
62435;SDS011;48480;50.252;18.848;2024-01-27T14:33:35;45.70;;;13.50;;
62435;SDS011;48480;50.252;18.848;2024-01-27T14:36:19;37.90;;;13.00;;
62435;SDS011;48480;50.252;18.848;2024-01-27T14:39:04;32.10;;;10.90;;
62435;SDS011;48480;50.252;18.848;2024-01-27T14:41:48;21.00;;;8.10;;
62435;SDS011;48480;50.252;18.848;2024-01-27T14:44:32;26.00;;;9.10;;
62435;SDS011;48480;50.252;18.848;2024-01-27T14:47:16;20.70;;;8.00;;
62435;SDS011;48480;50.252;18.848;2024-01-27T14:50:01;20.70;;;7.70;;
62435;SDS011;48480;50.252;18.848;2024-01-27T14:52:45;20.20;;;8.20;;
62435;SDS011;48480;50.252;18.848;2024-01-27T14:55:30;24.40;;;8.00;;
62435;SDS011;48480;50.252;18.848;2024-01-27T14:58:16;18.70;;;6.90;;
62435;SDS011;48480;50.252;18.848;2024-01-27T15:01:01;23.50;;;9.80;;
62435;SDS011;48480;50.252;18.848;2024-01-27T15:03:44;18.10;;;7.80;;
62435;SDS011;48480;50.252;18.848;2024-01-27T15:06:29;25.70;;;9.80;;
62435;SDS011;48480;50.252;18.848;2024-01-27T15:09:12;29.80;;;11.40;;
62435;SDS011;48480;50.252;18.848;2024-01-27T15:11:59;27.80;;;10.90;;
62435;SDS011;48480;50.252;18.848;2024-01-27T15:14:43;34.20;;;12.40;;
62435;SDS011;48480;50.252;18.848;2024-01-27T15:17:28;22.90;;;8.10;;
62435;SDS011;48480;50.252;18.848;2024-01-27T15:20:19;16.20;;;6.80;;
62435;SDS011;48480;50.252;18.848;2024-01-27T15:23:20;19.40;;;8.30;;
62435;SDS011;48480;50.252;18.848;2024-01-27T15:26:06;19.40;;;7.50;;
62435;SDS011;48480;50.252;18.848;2024-01-27T15:28:53;15.50;;;7.00;;
62435;SDS011;48480;50.252;18.848;2024-01-27T15:31:37;16.80;;;6.60;;
62435;SDS011;48480;50.252;18.848;2024-01-27T15:34:21;15.80;;;6.70;;
62435;SDS011;48480;50.252;18.848;2024-01-27T15:37:06;15.70;;;6.60;;
62435;SDS011;48480;50.252;18.848;2024-01-27T15:39:53;27.70;;;11.40;;
62435;SDS011;48480;50.252;18.848;2024-01-27T15:42:38;18.60;;;7.50;;
62435;SDS011;48480;50.252;18.848;2024-01-27T15:45:22;28.50;;;11.40;;
62435;SDS011;48480;50.252;18.848;2024-01-27T15:48:06;26.00;;;9.90;;
62435;SDS011;48480;50.252;18.848;2024-01-27T15:50:51;16.70;;;7.50;;
62435;SDS011;48480;50.252;18.848;2024-01-27T15:53:35;16.30;;;7.30;;
62435;SDS011;48480;50.252;18.848;2024-01-27T15:56:19;19.50;;;9.70;;
62435;SDS011;48480;50.252;18.848;2024-01-27T15:59:04;23.50;;;9.50;;
62435;SDS011;48480;50.252;18.848;2024-01-27T16:01:47;16.60;;;6.90;;
62435;SDS011;48480;50.252;18.848;2024-01-27T16:04:32;23.70;;;10.30;;
62435;SDS011;48480;50.252;18.848;2024-01-27T16:07:16;19.90;;;8.70;;
62435;SDS011;48480;50.252;18.848;2024-01-27T16:10:00;48.20;;;14.50;;
62435;SDS011;48480;50.252;18.848;2024-01-27T16:12:47;29.60;;;11.80;;